HomeShort term forecast

Short term forecast

Graphical weather forecast for the next 48 hours for Montreal:
Short term forecast
This weather forecast is automatically refreshed every 3 hours.

Hourly Experimental Forecast for the next 48 hours ®

Overall summary: Mixed precipitation later this evening and breezy starting tonight, continuing until tomorrow morning.

 Date & Hour   Temp   Feel   Baro   Hum   Speed & Bearing   Precipitation   Visibility   Cloud cover   Conditions 
 23/01/2018 - 19:00  -0.1°C  -3.1°C  997.2 hPa  90%  8.8 km/h   0.45 mm/h  2.8km  91%  Light Snow 
 23/01/2018 - 20:00  2.3°C  -1.2°C  997.0 hPa  85%  12.7 km/h   1.03 mm/h  1.2km  90%  Light Rain 
 23/01/2018 - 21:00  4.0°C  -0.2°C  996.8 hPa  81%  20.3 km/h   0.66 mm/h  3.8km  98%  Light Rain 
 23/01/2018 - 22:00  4.5°C  0.0°C  996.9 hPa  78%  24.3 km/h   0.24 mm/h  5.3km  85%  Mostly Cloudy 
 23/01/2018 - 23:00  4.4°C  -0.3°C  996.6 hPa  78%  25.5 km/h   0.14 mm/h  5.1km  78%  Breezy and Mostly Cloudy 
 24/01/2018 - 00:00  3.9°C  -0.9°C  996.3 hPa  79%  24.7 km/h   0.07 mm/h  5.1km  78%  Breezy and Mostly Cloudy 
 24/01/2018 - 01:00  2.7°C  -2.4°C  996.3 hPa  81%  24.7 km/h   0.06 mm/h  6.2km  86%  Breezy and Mostly Cloudy 
 24/01/2018 - 02:00  0.9°C  -4.9°C  997.7 hPa  81%  27.0 km/h   0.07 mm/h  10.4km  93%  Breezy and Mostly Cloudy 
 24/01/2018 - 03:00  -1.7°C  -8.6°C  999.4 hPa  81%  29.1 km/h   0.02 mm/h  15.4km  80%  Breezy and Mostly Cloudy 
 24/01/2018 - 04:00  -4.1°C  -11.9°C  1001.2 hPa  80%  30.3 km/h   0.03 mm/h  16.1km  70%  Breezy and Mostly Cloudy 
 24/01/2018 - 05:00  -6.1°C  -14.3°C  1003.3 hPa  80%  29.7 km/h   0.05 mm/h  16.1km  69%  Breezy and Mostly Cloudy 
 24/01/2018 - 06:00  -7.6°C  -16.1°C  1005.4 hPa  78%  27.8 km/h   0.03 mm/h  16.1km  64%  Breezy and Mostly Cloudy 
 24/01/2018 - 07:00  -8.9°C  -17.5°C  1007.4 hPa  77%  26.1 km/h   0.04 mm/h  16.1km  60%  Breezy and Mostly Cloudy 
 24/01/2018 - 08:00  -9.2°C  -18.0°C  1009.0 hPa  78%  26.8 km/h   --  16.1km  66%  Breezy and Mostly Cloudy 
 24/01/2018 - 09:00  -9.6°C  -18.4°C  1010.8 hPa  77%  26.3 km/h   --  16.1km  41%  Partly Cloudy 
 24/01/2018 - 10:00  -9.9°C  -18.7°C  1012.2 hPa  77%  25.8 km/h   --  16.1km  25%  Partly Cloudy 
 24/01/2018 - 11:00  -9.8°C  -18.7°C  1013.1 hPa  77%  25.9 km/h   --  16.1km  26%  Partly Cloudy 
 24/01/2018 - 12:00  -9.6°C  -18.3°C  1013.6 hPa  77%  26.2 km/h   --  16.1km  31%  Partly Cloudy 
 24/01/2018 - 13:00  -9.1°C  -17.7°C  1014.1 hPa  75%  25.9 km/h   --  16.1km  36%  Partly Cloudy 
 24/01/2018 - 14:00  -8.7°C  -17.0°C  1014.7 hPa  73%  24.4 km/h   --  16.1km  37%  Partly Cloudy 
 24/01/2018 - 15:00  -8.4°C  -16.2°C  1015.3 hPa  71%  22.4 km/h   0.01 mm/h  16.1km  37%  Partly Cloudy 
 24/01/2018 - 16:00  -8.6°C  -16.2°C  1016.1 hPa  71%  20.7 km/h   0.01 mm/h  16.1km  35%  Partly Cloudy 
 24/01/2018 - 17:00  -9.4°C  -17.0°C  1017.0 hPa  70%  19.8 km/h   0.01 mm/h  16.1km  30%  Partly Cloudy 
 24/01/2018 - 18:00  -10.7°C  -18.5°C  1018.1 hPa  69%  19.2 km/h   --  16.1km  24%  Clear 
 24/01/2018 - 19:00  -11.8°C  -19.8°C  1019.2 hPa  69%  18.5 km/h   --  16.1km  18%  Clear 
 24/01/2018 - 20:00  -12.7°C  -20.7°C  1020.1 hPa  69%  17.5 km/h   --  16.1km  12%  Clear 
 24/01/2018 - 21:00  -13.5°C  -21.3°C  1020.9 hPa  70%  16.2 km/h   --  16.1km  6%  Clear 
 24/01/2018 - 22:00  -14.1°C  -21.9°C  1021.6 hPa  70%  15.3 km/h   --  16.1km  2%  Clear 
 24/01/2018 - 23:00  -14.6°C  -22.3°C  1022.2 hPa  69%  14.8 km/h   --  16.1km  2%  Clear 
 25/01/2018 - 00:00  -15.0°C  -22.8°C  1022.6 hPa  70%  14.6 km/h   --  16.1km  4%  Clear 
 25/01/2018 - 01:00  -15.5°C  -23.3°C  1023.1 hPa  70%  14.5 km/h   --  16.1km  5%  Clear 
 25/01/2018 - 02:00  -16.0°C  -24.0°C  1023.7 hPa  70%  14.5 km/h   --  16.1km  5%  Clear 
 25/01/2018 - 03:00  -16.7°C  -24.8°C  1024.3 hPa  70%  14.5 km/h   0.01 mm/h  16.1km  3%  Clear 
 25/01/2018 - 04:00  -17.3°C  -25.6°C  1025.0 hPa  69%  14.7 km/h   0.01 mm/h  16.1km  2%  Clear 
 25/01/2018 - 05:00  -17.8°C  -26.3°C  1025.9 hPa  70%  15.0 km/h   0.01 mm/h  16.1km  1%  Clear 
 25/01/2018 - 06:00  -18.3°C  -27.1°C  1026.9 hPa  70%  15.5 km/h   --  16.1km  1%  Clear 
 25/01/2018 - 07:00  -18.5°C  -27.6°C  1027.7 hPa  70%  16.3 km/h   --  16.1km  1%  Clear 
 25/01/2018 - 08:00  -18.1°C  -26.9°C  1028.3 hPa  70%  15.9 km/h   --  16.1km  1%  Clear 
 25/01/2018 - 09:00  -17.4°C  -26.6°C  1028.9 hPa  70%  17.9 km/h   --  16.1km  0%  Clear 
 25/01/2018 - 10:00  -16.8°C  -26.4°C  1029.3 hPa  71%  19.9 km/h   0.01 mm/h  16.1km  0%  Clear 
 25/01/2018 - 11:00  -16.1°C  -25.7°C  1029.4 hPa  72%  20.8 km/h   --  16.1km  1%  Clear 
 25/01/2018 - 12:00  -15.3°C  -24.5°C  1029.3 hPa  72%  19.9 km/h   --  16.1km  3%  Clear 
 25/01/2018 - 13:00  -14.5°C  -24.1°C  1029.3 hPa  71%  22.9 km/h   0.01 mm/h  16.1km  4%  Clear 
 25/01/2018 - 14:00  -13.8°C  -23.1°C  1029.4 hPa  70%  22.1 km/h   --  16.1km  6%  Clear 
 25/01/2018 - 15:00  -13.2°C  -22.0°C  1029.5 hPa  69%  20.6 km/h   --  16.1km  8%  Clear 
 25/01/2018 - 16:00  -12.9°C  -21.3°C  1029.9 hPa  68%  19.2 km/h   --  16.1km  9%  Clear 
 25/01/2018 - 17:00  -13.2°C  -21.4°C  1030.6 hPa  69%  17.9 km/h   --  16.1km  8%  Clear 
 25/01/2018 - 18:00  -13.9°C  -21.9°C  1031.5 hPa  71%  16.6 km/h   --  16.1km  6%  Clear 
Test

 

Past weather and reports

Past weatherFind in this section the past weather conditions, weather archive, graphics, reports and statistics.

Current conditions

Current weather condition for MontrealAll you need to know about the current weather conditions for Montreal. Weather data is updated every 10 minutes.

Weather forecast

Current Montreal weatherSince 2004, celinium.com website has provided accurate weather forecast for Montreal's island.